createdAt,value
2023-02-03T00:00:03.604Z,7.12
2023-02-03T00:01:03.702Z,7.12
2023-02-03T00:02:03.755Z,7.13
2023-02-03T00:03:03.772Z,7.15
2023-02-03T00:04:03.791Z,7.13
2023-02-03T00:05:03.824Z,7.12
2023-02-03T00:06:03.910Z,7.08
2023-02-03T00:07:04.557Z,7.16
2023-02-03T00:08:03.951Z,7.15
2023-02-03T00:09:04.000Z,7.17
2023-02-03T00:10:04.037Z,7.15
2023-02-03T00:11:04.114Z,7.15
2023-02-03T00:12:04.132Z,7.08
2023-02-03T00:13:04.176Z,7.16
2023-02-03T00:14:04.219Z,7.17
2023-02-03T00:15:04.297Z,7.17
2023-02-03T00:16:04.360Z,7.12
2023-02-03T00:17:04.339Z,7.13
2023-02-03T00:18:04.400Z,7.12
2023-02-03T00:19:05.049Z,7.16
2023-02-03T00:20:05.072Z,7.13
2023-02-03T00:21:04.524Z,7.02
2023-02-03T00:22:04.610Z,7.02
2023-02-03T00:23:04.628Z,6.99
2023-02-03T00:24:04.652Z,7.05
2023-02-03T00:25:05.560Z,6.94
2023-02-03T00:26:05.555Z,6.94
2023-02-03T00:27:04.796Z,6.97
2023-02-03T00:28:04.920Z,6.90
2023-02-03T00:29:04.872Z,7.02
2023-02-03T00:30:04.927Z,6.98
2023-02-03T00:31:05.563Z,7.01
2023-02-03T00:32:05.158Z,7.01
2023-02-03T00:33:05.056Z,6.98
2023-02-03T00:34:05.079Z,6.89
2023-02-03T00:35:05.132Z,6.86
2023-02-03T00:36:05.161Z,6.91
2023-02-03T00:37:05.241Z,6.90
2023-02-03T00:38:05.257Z,6.91
2023-02-03T00:39:05.289Z,6.81
2023-02-03T00:40:05.360Z,6.91
2023-02-03T00:41:05.379Z,6.91
2023-02-03T00:42:05.446Z,6.86
2023-02-03T00:43:05.483Z,6.87
2023-02-03T00:44:05.503Z,6.80
2023-02-03T00:45:05.562Z,6.79
2023-02-03T00:46:05.671Z,6.66
2023-02-03T00:47:05.654Z,6.71
2023-02-03T00:48:05.697Z,6.61
2023-02-03T00:49:05.757Z,6.61
2023-02-03T00:50:05.767Z,6.58
2023-02-03T00:51:05.830Z,6.54
2023-02-03T00:52:05.855Z,6.61
2023-02-03T00:53:05.893Z,6.58
2023-02-03T00:54:05.961Z,6.58
2023-02-03T00:55:05.993Z,6.48
2023-02-03T00:56:06.031Z,6.58
2023-02-03T00:57:06.072Z,6.56
2023-02-03T00:58:06.118Z,6.63
2023-02-03T00:59:06.220Z,6.48
2023-02-03T01:00:07.072Z,6.59
2023-02-03T01:01:06.306Z,6.63
2023-02-03T01:02:06.319Z,6.54
2023-02-03T01:03:06.324Z,6.62
2023-02-03T01:04:06.407Z,6.56
2023-02-03T01:05:06.414Z,6.58
2023-02-03T01:06:06.455Z,6.56
2023-02-03T01:07:06.502Z,6.51
2023-02-03T01:08:06.546Z,6.58
2023-02-03T01:09:06.600Z,6.53
2023-02-03T01:10:06.622Z,6.56
2023-02-03T01:11:06.665Z,6.59
2023-02-03T01:12:07.578Z,6.53
2023-02-03T01:13:06.773Z,6.54
2023-02-03T01:14:06.822Z,6.50
2023-02-03T01:15:06.858Z,6.58
2023-02-03T01:16:06.895Z,6.54
2023-02-03T01:17:06.948Z,6.59
2023-02-03T01:18:07.565Z,6.54
2023-02-03T01:19:07.007Z,6.56
2023-02-03T01:20:07.067Z,6.51
2023-02-03T01:21:07.094Z,6.56
2023-02-03T01:22:07.173Z,6.62
2023-02-03T01:23:07.193Z,6.58
2023-02-03T01:24:08.087Z,6.66
2023-02-03T01:25:07.273Z,6.61
2023-02-03T01:26:07.347Z,6.69
2023-02-03T01:27:07.379Z,6.62
2023-02-03T01:28:07.460Z,6.61
2023-02-03T01:29:07.437Z,6.62
2023-02-03T01:30:08.060Z,6.65
2023-02-03T01:31:07.640Z,6.71
2023-02-03T01:32:07.646Z,6.65
2023-02-03T01:33:07.633Z,6.72
2023-02-03T01:34:07.664Z,6.66
2023-02-03T01:35:07.718Z,6.61
2023-02-03T01:36:07.747Z,6.63
2023-02-03T01:37:07.812Z,6.63
2023-02-03T01:38:07.850Z,6.69
2023-02-03T01:39:07.874Z,6.59
2023-02-03T01:40:07.920Z,6.65
2023-02-03T01:41:07.956Z,6.69
2023-02-03T01:42:08.029Z,6.62
2023-02-03T01:43:08.057Z,6.50
2023-02-03T01:44:08.107Z,6.48
2023-02-03T01:45:08.137Z,6.56
2023-02-03T01:46:08.223Z,6.50
2023-02-03T01:47:08.218Z,6.47
2023-02-03T01:48:09.141Z,6.50
2023-02-03T01:49:08.322Z,6.46
2023-02-03T01:50:08.378Z,6.41
2023-02-03T01:51:08.418Z,6.48
2023-02-03T01:52:08.448Z,6.51
2023-02-03T01:53:08.488Z,6.46
2023-02-03T01:54:08.520Z,6.44
2023-02-03T01:55:08.556Z,6.48
2023-02-03T01:56:08.623Z,6.46
2023-02-03T01:57:08.645Z,6.43
2023-02-03T01:58:08.688Z,6.47
2023-02-03T01:59:08.758Z,6.41
2023-02-03T02:00:08.818Z,6.41
2023-02-03T02:01:08.924Z,6.48
2023-02-03T02:02:08.883Z,6.59
2023-02-03T02:03:08.924Z,6.66
2023-02-03T02:04:08.952Z,6.66
2023-02-03T02:05:09.028Z,6.59
2023-02-03T02:06:09.039Z,6.58
2023-02-03T02:07:09.109Z,6.71
2023-02-03T02:08:09.123Z,6.68
2023-02-03T02:09:09.163Z,6.66
2023-02-03T02:10:09.201Z,6.68
2023-02-03T02:11:09.253Z,6.68
2023-02-03T02:12:09.333Z,6.79
2023-02-03T02:13:09.341Z,6.69
2023-02-03T02:14:09.379Z,6.83
2023-02-03T02:15:09.432Z,6.84
2023-02-03T02:16:09.524Z,6.87
2023-02-03T02:17:09.526Z,6.90
2023-02-03T02:18:09.552Z,6.89
2023-02-03T02:19:09.591Z,6.81
2023-02-03T02:20:09.642Z,6.79
2023-02-03T02:21:09.723Z,6.72
2023-02-03T02:22:09.730Z,6.73
2023-02-03T02:23:09.771Z,6.72
2023-02-03T02:24:09.805Z,6.79
2023-02-03T02:25:09.863Z,6.79
2023-02-03T02:26:09.930Z,6.76
2023-02-03T02:27:09.947Z,6.79
2023-02-03T02:28:10.005Z,6.79
2023-02-03T02:29:10.033Z,6.73
2023-02-03T02:30:10.111Z,6.65
2023-02-03T02:31:10.239Z,6.66
2023-02-03T02:32:10.153Z,6.65
2023-02-03T02:33:10.195Z,6.68
2023-02-03T02:34:10.266Z,6.72
2023-02-03T02:35:10.329Z,6.76
2023-02-03T02:36:10.322Z,6.80
2023-02-03T02:37:10.372Z,6.79
2023-02-03T02:38:10.417Z,6.77
2023-02-03T02:39:10.474Z,6.95
2023-02-03T02:40:10.527Z,6.80
2023-02-03T02:41:10.545Z,6.84
2023-02-03T02:42:10.590Z,6.86
2023-02-03T02:43:10.675Z,6.83
2023-02-03T02:44:10.676Z,6.81
2023-02-03T02:45:10.758Z,6.79
2023-02-03T02:46:10.825Z,6.80
2023-02-03T02:47:10.806Z,6.79
2023-02-03T02:48:10.843Z,6.79
2023-02-03T02:49:10.885Z,6.86
2023-02-03T02:50:10.968Z,6.83
2023-02-03T02:51:10.966Z,6.80
2023-02-03T02:52:11.018Z,6.86
2023-02-03T02:53:11.061Z,6.86
2023-02-03T02:54:11.093Z,6.94
2023-02-03T02:55:11.171Z,6.90
2023-02-03T02:56:11.723Z,6.86
2023-02-03T02:57:11.221Z,6.86
2023-02-03T02:58:11.276Z,6.90
2023-02-03T02:59:11.308Z,6.90
2023-02-03T03:00:11.393Z,6.97
2023-02-03T03:01:11.474Z,6.97
2023-02-03T03:02:11.458Z,6.97
2023-02-03T03:03:11.490Z,6.80
2023-02-03T03:04:11.544Z,6.77
2023-02-03T03:05:11.658Z,6.79
2023-02-03T03:06:11.620Z,6.77
2023-02-03T03:07:11.659Z,6.95
2023-02-03T03:08:11.728Z,6.91
2023-02-03T03:09:11.752Z,6.83
2023-02-03T03:10:12.568Z,6.87
2023-02-03T03:11:11.823Z,6.94
2023-02-03T03:12:11.868Z,6.86
2023-02-03T03:13:11.941Z,6.80
2023-02-03T03:14:11.960Z,6.73
2023-02-03T03:15:11.996Z,6.79
2023-02-03T03:16:12.072Z,6.83
2023-02-03T03:17:12.083Z,6.79
2023-02-03T03:18:12.171Z,6.73
2023-02-03T03:19:12.196Z,6.79
2023-02-03T03:20:12.220Z,6.83
2023-02-03T03:21:12.253Z,6.86
2023-02-03T03:22:12.305Z,6.81
2023-02-03T03:23:12.361Z,6.83
2023-02-03T03:24:12.384Z,6.80
2023-02-03T03:25:12.434Z,6.86
2023-02-03T03:26:12.506Z,6.91
2023-02-03T03:27:12.521Z,6.89
2023-02-03T03:28:12.661Z,6.90
2023-02-03T03:29:12.604Z,6.84
2023-02-03T03:30:12.672Z,6.83
2023-02-03T03:31:12.807Z,6.76
2023-02-03T03:32:12.758Z,6.72
2023-02-03T03:33:12.777Z,6.73
2023-02-03T03:34:12.819Z,6.73
2023-02-03T03:35:12.869Z,6.72
2023-02-03T03:36:12.934Z,6.76
2023-02-03T03:37:12.944Z,6.65
2023-02-03T03:38:12.991Z,6.61
2023-02-03T03:39:13.029Z,6.59
2023-02-03T03:40:13.573Z,6.59
2023-02-03T03:41:13.140Z,6.62
2023-02-03T03:42:13.178Z,6.61
2023-02-03T03:43:13.212Z,6.58
2023-02-03T03:44:13.245Z,6.63
2023-02-03T03:45:13.313Z,6.58
2023-02-03T03:46:13.462Z,6.62
2023-02-03T03:47:13.409Z,6.63
2023-02-03T03:48:13.420Z,6.65
2023-02-03T03:49:13.463Z,6.62
2023-02-03T03:50:13.513Z,6.53
2023-02-03T03:51:13.544Z,6.50
2023-02-03T03:52:13.615Z,6.53
2023-02-03T03:53:13.640Z,6.58
2023-02-03T03:54:13.699Z,6.58
2023-02-03T03:55:13.727Z,6.65
2023-02-03T03:56:13.765Z,6.59
2023-02-03T03:57:13.837Z,6.62
2023-02-03T03:58:14.588Z,6.48
2023-02-03T03:59:13.941Z,6.53
2023-02-03T04:00:13.940Z,6.53
2023-02-03T04:01:13.976Z,6.58
2023-02-03T04:02:14.145Z,6.63
2023-02-03T04:03:14.122Z,6.62
2023-02-03T04:04:14.141Z,6.50
2023-02-03T04:05:14.158Z,6.56
2023-02-03T04:06:14.205Z,6.56
2023-02-03T04:07:14.248Z,6.53
2023-02-03T04:08:14.287Z,6.44
2023-02-03T04:09:14.355Z,6.48
2023-02-03T04:10:15.079Z,6.35
2023-02-03T04:11:14.421Z,6.41
2023-02-03T04:12:14.474Z,6.38
2023-02-03T04:13:14.491Z,6.32
2023-02-03T04:14:14.568Z,6.30
2023-02-03T04:15:15.090Z,6.35
2023-02-03T04:16:14.682Z,6.35
2023-02-03T04:17:14.702Z,6.32
2023-02-03T04:18:14.747Z,6.30
2023-02-03T04:19:14.755Z,6.40
2023-02-03T04:20:14.799Z,6.36
2023-02-03T04:21:14.871Z,6.35
2023-02-03T04:22:14.876Z,6.48
2023-02-03T04:23:14.942Z,6.50
2023-02-03T04:24:14.976Z,6.59
2023-02-03T04:25:15.004Z,6.56
2023-02-03T04:26:15.060Z,6.63
2023-02-03T04:27:15.161Z,6.61
2023-02-03T04:28:15.181Z,6.61
2023-02-03T04:29:15.206Z,6.56
2023-02-03T04:30:15.221Z,6.48
2023-02-03T04:31:15.402Z,6.53
2023-02-03T04:32:15.317Z,6.62
2023-02-03T04:33:15.357Z,6.56
2023-02-03T04:34:15.400Z,6.50
2023-02-03T04:35:15.473Z,6.56
2023-02-03T04:36:15.486Z,6.51
2023-02-03T04:37:15.531Z,6.50
2023-02-03T04:38:15.577Z,6.58
2023-02-03T04:39:15.612Z,6.62
2023-02-03T04:40:15.669Z,6.61
2023-02-03T04:41:15.699Z,6.50
2023-02-03T04:42:15.757Z,6.56
2023-02-03T04:43:15.781Z,6.53
2023-02-03T04:44:15.835Z,6.58
2023-02-03T04:45:15.882Z,6.53
2023-02-03T04:46:15.917Z,6.47
2023-02-03T04:47:15.993Z,6.56
2023-02-03T04:48:15.999Z,6.50
2023-02-03T04:49:16.052Z,6.56
2023-02-03T04:50:16.119Z,6.51
2023-02-03T04:51:16.181Z,6.53
2023-02-03T04:52:16.196Z,6.50
2023-02-03T04:53:16.241Z,6.54
2023-02-03T04:54:16.270Z,6.46
2023-02-03T04:55:16.305Z,6.48
2023-02-03T04:56:16.345Z,6.46
2023-02-03T04:57:16.409Z,6.47
2023-02-03T04:58:16.438Z,6.43
2023-02-03T04:59:16.471Z,6.46
2023-02-03T05:00:16.522Z,6.48
2023-02-03T05:01:16.619Z,6.48
2023-02-03T05:02:16.624Z,6.41
2023-02-03T05:03:17.590Z,6.51
2023-02-03T05:04:16.704Z,6.46
2023-02-03T05:05:16.724Z,6.51
2023-02-03T05:06:16.797Z,6.51
2023-02-03T05:07:16.815Z,6.53
2023-02-03T05:08:16.867Z,6.47
2023-02-03T05:09:16.892Z,6.58
2023-02-03T05:10:16.941Z,6.56
2023-02-03T05:11:17.005Z,6.50
2023-02-03T05:12:17.039Z,6.51
2023-02-03T05:13:17.100Z,6.50
2023-02-03T05:14:17.110Z,6.53
2023-02-03T05:15:17.170Z,6.56
2023-02-03T05:16:17.255Z,6.48
2023-02-03T05:17:17.245Z,6.40
2023-02-03T05:18:17.315Z,6.44
2023-02-03T05:19:17.330Z,6.46
2023-02-03T05:20:17.373Z,6.46
2023-02-03T05:21:17.420Z,6.38
2023-02-03T05:22:17.464Z,6.33
2023-02-03T05:23:17.516Z,6.46
2023-02-03T05:24:17.562Z,6.41
2023-02-03T05:25:17.590Z,6.43
2023-02-03T05:26:17.621Z,6.50
2023-02-03T05:27:17.666Z,6.54
2023-02-03T05:28:17.850Z,6.54
2023-02-03T05:29:17.778Z,6.56
2023-02-03T05:30:17.834Z,6.58
2023-02-03T05:31:17.927Z,6.50
2023-02-03T05:32:17.892Z,6.54
2023-02-03T05:33:17.947Z,6.48
2023-02-03T05:34:17.995Z,6.43
2023-02-03T05:35:18.020Z,6.41
2023-02-03T05:36:18.064Z,6.43
2023-02-03T05:37:18.093Z,6.51
2023-02-03T05:38:18.142Z,6.46
2023-02-03T05:39:18.217Z,6.46
2023-02-03T05:40:18.231Z,6.43
2023-02-03T05:41:18.282Z,6.50
2023-02-03T05:42:18.312Z,6.46
2023-02-03T05:43:18.355Z,6.46
2023-02-03T05:44:18.425Z,6.41
2023-02-03T05:45:18.443Z,6.40
2023-02-03T05:46:18.561Z,6.46
2023-02-03T05:47:18.535Z,6.48
2023-02-03T05:48:18.572Z,6.46
2023-02-03T05:49:19.594Z,6.50
2023-02-03T05:50:18.655Z,6.56
2023-02-03T05:51:18.740Z,6.62
2023-02-03T05:52:18.759Z,6.62
2023-02-03T05:53:18.786Z,6.68
2023-02-03T05:54:18.834Z,6.66
2023-02-03T05:55:18.863Z,6.68
2023-02-03T05:56:18.906Z,6.72
2023-02-03T05:57:18.971Z,6.63
2023-02-03T05:58:19.004Z,6.66
2023-02-03T05:59:19.059Z,6.66
2023-02-03T06:00:19.082Z,6.73
2023-02-03T06:01:19.123Z,6.68
2023-02-03T06:02:19.161Z,6.76
2023-02-03T06:03:19.301Z,6.65
2023-02-03T06:04:19.357Z,6.76
2023-02-03T06:05:19.299Z,6.76
2023-02-03T06:06:19.338Z,6.71
2023-02-03T06:07:19.396Z,6.69
2023-02-03T06:08:19.419Z,6.72
2023-02-03T06:09:19.497Z,6.69
2023-02-03T06:10:19.520Z,6.76
2023-02-03T06:11:19.559Z,6.77
2023-02-03T06:12:19.591Z,6.79
2023-02-03T06:13:19.632Z,6.69
2023-02-03T06:14:19.711Z,6.73
2023-02-03T06:15:19.764Z,6.72
2023-02-03T06:16:19.811Z,6.73
2023-02-03T06:17:19.804Z,6.79
2023-02-03T06:18:19.855Z,6.79
2023-02-03T06:19:19.909Z,6.79
2023-02-03T06:20:19.963Z,6.77
2023-02-03T06:21:20.016Z,6.79
2023-02-03T06:22:20.026Z,6.76
2023-02-03T06:23:20.070Z,6.79
2023-02-03T06:24:20.113Z,6.72
2023-02-03T06:25:20.156Z,6.71
2023-02-03T06:26:20.228Z,6.76
2023-02-03T06:27:20.239Z,6.79
2023-02-03T06:28:20.377Z,6.79
2023-02-03T06:29:20.316Z,6.84
2023-02-03T06:30:20.365Z,6.76
2023-02-03T06:31:20.529Z,6.80
2023-02-03T06:32:20.480Z,6.89
2023-02-03T06:33:20.498Z,6.90
2023-02-03T06:34:20.556Z,6.98
2023-02-03T06:35:20.616Z,6.89
2023-02-03T06:36:20.637Z,6.95
2023-02-03T06:37:20.672Z,6.89
2023-02-03T06:38:20.705Z,6.94
2023-02-03T06:39:20.748Z,6.95
2023-02-03T06:40:20.822Z,6.95
2023-02-03T06:41:20.860Z,6.90
2023-02-03T06:42:20.884Z,6.90
2023-02-03T06:43:20.926Z,6.90
2023-02-03T06:44:20.988Z,6.95
2023-02-03T06:45:21.014Z,6.97
2023-02-03T06:46:21.067Z,6.95
2023-02-03T06:47:21.093Z,6.89
2023-02-03T06:48:21.144Z,6.91
2023-02-03T06:49:21.210Z,6.94
2023-02-03T06:50:21.240Z,6.90
2023-02-03T06:51:21.264Z,6.90
2023-02-03T06:52:21.324Z,6.77
2023-02-03T06:53:21.378Z,6.97
2023-02-03T06:54:21.394Z,6.97
2023-02-03T06:55:21.439Z,6.98
2023-02-03T06:56:21.487Z,6.94
2023-02-03T06:57:21.530Z,6.83
2023-02-03T06:58:21.607Z,6.89
2023-02-03T06:59:21.610Z,6.89
2023-02-03T07:00:21.651Z,6.97
2023-02-03T07:01:21.768Z,6.91
2023-02-03T07:02:21.807Z,6.95
2023-02-03T07:03:21.783Z,6.90
2023-02-03T07:04:21.834Z,6.91
2023-02-03T07:05:21.894Z,6.94
2023-02-03T07:06:21.912Z,6.94
2023-02-03T07:07:22.001Z,6.90
2023-02-03T07:08:21.995Z,6.99
2023-02-03T07:09:22.038Z,6.83
2023-02-03T07:10:22.089Z,6.80
2023-02-03T07:11:22.122Z,6.90
2023-02-03T07:12:22.199Z,6.95
2023-02-03T07:13:22.256Z,6.90
2023-02-03T07:14:22.258Z,6.89
2023-02-03T07:15:22.305Z,6.87
2023-02-03T07:16:22.358Z,6.89
2023-02-03T07:17:22.408Z,6.94
2023-02-03T07:18:45.896Z,7.02
2023-02-03T07:19:22.469Z,7.04
2023-02-03T07:20:22.534Z,7.17
2023-02-03T07:21:30.647Z,7.04
2023-02-03T07:22:22.634Z,7.07
2023-02-03T07:23:22.642Z,7.04
2023-02-03T07:24:22.687Z,7.07
2023-02-03T07:25:22.734Z,7.12
2023-02-03T07:26:22.802Z,7.13
2023-02-03T07:27:22.814Z,7.13
2023-02-03T07:28:22.857Z,7.05
2023-02-03T07:29:22.935Z,7.08
2023-02-03T07:30:22.954Z,7.08
2023-02-03T07:31:23.074Z,7.15
2023-02-03T07:32:23.640Z,7.16
2023-02-03T07:33:23.069Z,7.12
2023-02-03T07:34:23.113Z,7.24
2023-02-03T07:35:23.159Z,7.15
2023-02-03T07:36:23.198Z,7.13
2023-02-03T07:37:23.267Z,7.09
2023-02-03T07:38:23.312Z,7.26
2023-02-03T07:39:23.340Z,7.24
2023-02-03T07:40:23.381Z,7.27
2023-02-03T07:41:23.415Z,7.19
2023-02-03T07:42:23.469Z,7.12
2023-02-03T07:43:23.529Z,7.15
2023-02-03T07:44:23.585Z,7.16
2023-02-03T07:45:23.596Z,7.09
2023-02-03T07:46:23.655Z,7.15
2023-02-03T07:47:23.710Z,7.09
2023-02-03T07:48:23.719Z,7.26
2023-02-03T07:49:23.796Z,7.20
2023-02-03T07:50:23.817Z,7.17
2023-02-03T07:51:23.856Z,7.17
2023-02-03T07:52:23.892Z,7.17
2023-02-03T07:53:23.939Z,7.19
2023-02-03T07:54:24.011Z,7.16
2023-02-03T07:55:24.021Z,7.26
2023-02-03T07:56:24.077Z,7.09
2023-02-03T07:57:24.108Z,7.12
2023-02-03T07:58:27.220Z,7.13
2023-02-03T07:59:24.201Z,7.15
2023-02-03T08:00:24.729Z,7.12
2023-02-03T08:01:28.228Z,7.09
2023-02-03T08:02:24.381Z,7.13
2023-02-03T08:03:24.370Z,7.07
2023-02-03T08:04:24.418Z,7.02
2023-02-03T08:05:24.456Z,7.09
2023-02-03T08:06:24.499Z,7.09
2023-02-03T08:07:24.596Z,7.15
2023-02-03T08:08:24.597Z,7.12
2023-02-03T08:09:24.630Z,7.15
2023-02-03T08:10:24.700Z,7.12
2023-02-03T08:11:24.721Z,7.16
2023-02-03T08:12:24.779Z,7.16
2023-02-03T08:13:24.807Z,7.15
2023-02-03T08:14:24.885Z,7.16
2023-02-03T08:15:24.902Z,7.13
2023-02-03T08:16:25.025Z,7.15
2023-02-03T08:17:25.000Z,7.16
2023-02-03T08:18:25.017Z,7.16
2023-02-03T08:19:25.087Z,7.19
2023-02-03T08:20:25.160Z,7.09
2023-02-03T08:21:25.151Z,7.17
2023-02-03T08:22:28.064Z,7.16
2023-02-03T08:23:25.251Z,7.13
2023-02-03T08:24:25.304Z,7.09
2023-02-03T08:25:25.343Z,7.16
2023-02-03T08:26:25.370Z,7.15
2023-02-03T08:27:25.410Z,7.15
2023-02-03T08:28:25.450Z,7.26
2023-02-03T08:29:25.492Z,7.13
2023-02-03T08:30:25.740Z,7.17
2023-02-03T08:31:26.240Z,7.17
2023-02-03T08:32:25.676Z,7.19
2023-02-03T08:33:25.686Z,7.20
2023-02-03T08:34:25.721Z,7.24
2023-02-03T08:35:25.782Z,7.20
2023-02-03T08:36:25.803Z,7.23
2023-02-03T08:37:26.662Z,7.27
2023-02-03T08:38:25.912Z,7.24
2023-02-03T08:39:25.943Z,7.29
2023-02-03T08:40:26.324Z,7.23
2023-02-03T08:41:26.023Z,7.27
2023-02-03T08:42:26.678Z,7.27
2023-02-03T08:43:26.136Z,7.32
2023-02-03T08:44:26.152Z,7.24
2023-02-03T08:45:26.210Z,7.23
2023-02-03T08:46:26.243Z,7.24
2023-02-03T08:47:26.296Z,7.26
2023-02-03T08:48:26.356Z,7.29
2023-02-03T08:49:26.389Z,7.32
2023-02-03T08:50:26.753Z,7.42
2023-02-03T08:51:26.456Z,7.38
2023-02-03T08:52:26.509Z,7.40
2023-02-03T08:53:26.713Z,7.32
2023-02-03T08:54:26.587Z,7.41
2023-02-03T08:55:26.642Z,7.41
2023-02-03T08:56:26.672Z,7.41
2023-02-03T08:57:26.731Z,7.42
2023-02-03T08:58:26.801Z,7.40
2023-02-03T08:59:26.806Z,7.38
2023-02-03T09:00:27.138Z,7.38
2023-02-03T09:01:27.040Z,7.35
2023-02-03T09:02:26.951Z,7.29
2023-02-03T09:03:26.994Z,7.31
2023-02-03T09:04:27.061Z,7.31
2023-02-03T09:05:27.081Z,7.27
2023-02-03T09:06:27.160Z,7.26
2023-02-03T09:07:28.161Z,7.20
2023-02-03T09:08:27.234Z,7.29
2023-02-03T09:09:27.251Z,7.27
2023-02-03T09:10:27.610Z,7.23
2023-02-03T09:11:27.368Z,7.24
2023-02-03T09:12:27.397Z,7.27
2023-02-03T09:13:27.463Z,7.40
2023-02-03T09:14:27.479Z,7.41
2023-02-03T09:15:27.539Z,7.41
2023-02-03T09:16:27.668Z,7.44
2023-02-03T09:17:27.639Z,7.27
2023-02-03T09:18:27.648Z,7.35
2023-02-03T09:19:27.684Z,7.24
2023-02-03T09:20:28.242Z,7.23
2023-02-03T09:21:35.558Z,7.27
2023-02-03T09:22:27.823Z,7.31
2023-02-03T09:23:27.871Z,7.27
2023-02-03T09:24:27.914Z,7.29
2023-02-03T09:25:27.986Z,7.26
2023-02-03T09:26:28.003Z,7.26
2023-02-03T09:27:28.083Z,7.31
2023-02-03T09:28:28.095Z,7.29
2023-02-03T09:29:28.141Z,7.34
2023-02-03T09:30:29.376Z,7.40
2023-02-03T09:31:28.261Z,7.45
2023-02-03T09:32:28.313Z,7.59
2023-02-03T09:33:28.325Z,7.56
2023-02-03T09:34:28.361Z,7.81
2023-02-03T09:35:28.418Z,7.97
2023-02-03T09:36:28.442Z,8.08
2023-02-03T09:37:28.518Z,8.22
2023-02-03T09:38:28.533Z,8.28
2023-02-03T09:39:28.622Z,8.45
2023-02-03T09:40:28.967Z,8.66
2023-02-03T09:41:28.694Z,9.01
2023-02-03T09:42:28.748Z,9.38
2023-02-03T09:43:28.846Z,9.64
2023-02-03T09:44:28.818Z,9.94
2023-02-03T09:45:28.935Z,10.01
2023-02-03T09:46:28.887Z,9.85
2023-02-03T09:47:28.980Z,9.91
2023-02-03T09:48:29.012Z,10.04
2023-02-03T09:49:29.024Z,9.81
2023-02-03T09:50:29.426Z,10.01
2023-02-03T09:51:29.127Z,10.42
2023-02-03T09:52:29.194Z,10.60
2023-02-03T09:53:29.210Z,10.96
2023-02-03T09:54:29.267Z,11.20
2023-02-03T09:55:29.307Z,11.36
2023-02-03T09:56:29.354Z,11.44
2023-02-03T09:57:29.486Z,11.50
2023-02-03T09:58:29.451Z,11.70
2023-02-03T09:59:29.499Z,11.93
2023-02-03T10:00:29.748Z,11.75
2023-02-03T10:01:29.651Z,11.68
2023-02-03T10:02:29.701Z,11.78
2023-02-03T10:03:29.691Z,11.61
2023-02-03T10:04:29.739Z,11.59
2023-02-03T10:05:29.782Z,11.71
2023-02-03T10:06:29.857Z,11.89
2023-02-03T10:07:29.888Z,11.90
2023-02-03T10:08:29.943Z,11.83
2023-02-03T10:09:29.979Z,11.96
2023-02-03T10:10:30.207Z,12.02
2023-02-03T10:11:30.105Z,12.12
2023-02-03T10:12:30.136Z,12.04
2023-02-03T10:13:30.198Z,12.24
2023-02-03T10:14:30.217Z,12.20
2023-02-03T10:15:30.283Z,12.29
2023-02-03T10:16:30.389Z,12.37
2023-02-03T10:17:30.472Z,12.66
2023-02-03T10:18:30.443Z,12.93
2023-02-03T10:19:30.492Z,13.24
2023-02-03T10:20:30.577Z,13.36
2023-02-03T10:21:30.585Z,13.11
2023-02-03T10:22:30.623Z,13.20
2023-02-03T10:23:30.696Z,13.56
2023-02-03T10:24:30.744Z,13.54
2023-02-03T10:25:31.695Z,13.70
2023-02-03T10:26:30.823Z,13.51
2023-02-03T10:27:30.886Z,13.38
2023-02-03T10:28:30.932Z,13.03
2023-02-03T10:29:31.004Z,13.07
2023-02-03T10:30:31.667Z,13.12
2023-02-03T10:31:31.807Z,13.20
2023-02-03T10:32:31.131Z,12.82
2023-02-03T10:33:31.205Z,12.75
2023-02-03T10:34:31.248Z,12.46
2023-02-03T10:35:31.276Z,12.19
2023-02-03T10:36:31.330Z,12.20
2023-02-03T10:37:31.383Z,11.97
2023-02-03T10:38:31.461Z,11.94
2023-02-03T10:39:31.506Z,11.86
2023-02-03T10:40:31.638Z,11.72
2023-02-03T10:41:31.578Z,11.59
2023-02-03T10:42:31.642Z,11.35
2023-02-03T10:43:31.722Z,11.16
2023-02-03T10:44:31.730Z,11.09
2023-02-03T10:45:31.781Z,11.06
2023-02-03T10:46:31.924Z,11.06
2023-02-03T10:47:31.893Z,10.94
2023-02-03T10:48:31.944Z,10.98
2023-02-03T10:49:31.987Z,11.02
2023-02-03T10:50:32.166Z,10.91
2023-02-03T10:51:32.703Z,11.02
2023-02-03T10:52:32.127Z,11.32
2023-02-03T10:53:32.182Z,11.50
2023-02-03T10:54:32.350Z,11.50
2023-02-03T10:55:32.299Z,11.47
2023-02-03T10:56:32.359Z,11.32
2023-02-03T10:57:32.369Z,11.36
2023-02-03T10:58:32.426Z,11.28
2023-02-03T10:59:32.472Z,11.06
2023-02-03T11:00:32.529Z,10.91
2023-02-03T11:01:32.675Z,10.80
2023-02-03T11:02:32.655Z,10.92
2023-02-03T11:03:32.663Z,10.80
2023-02-03T11:04:32.716Z,10.80
2023-02-03T11:05:32.795Z,10.63
2023-02-03T11:06:32.844Z,10.59
2023-02-03T11:07:32.855Z,10.43
2023-02-03T11:08:32.912Z,10.36
2023-02-03T11:09:32.987Z,10.34
2023-02-03T11:10:33.018Z,10.36
2023-02-03T11:11:33.087Z,10.25
2023-02-03T11:12:33.107Z,10.04
2023-02-03T11:13:33.146Z,10.03
2023-02-03T11:14:33.198Z,10.07
2023-02-03T11:15:33.246Z,9.86
2023-02-03T11:16:33.320Z,9.93
2023-02-03T11:17:33.356Z,9.83
2023-02-03T11:18:33.400Z,9.86
2023-02-03T11:19:33.442Z,9.83
2023-02-03T11:20:33.482Z,9.81
2023-02-03T11:21:33.569Z,9.85
2023-02-03T11:22:33.568Z,9.91
2023-02-03T11:23:33.620Z,9.89
2023-02-03T11:24:33.670Z,9.82
2023-02-03T11:25:34.719Z,9.88
2023-02-03T11:26:33.780Z,9.89
2023-02-03T11:27:33.801Z,9.79
2023-02-03T11:28:33.857Z,9.81
2023-02-03T11:29:33.897Z,9.82
2023-02-03T11:30:33.984Z,9.85
2023-02-03T11:31:34.099Z,9.82
2023-02-03T11:32:34.073Z,9.76
2023-02-03T11:33:34.089Z,9.78
2023-02-03T11:34:34.137Z,9.82
2023-02-03T11:35:34.180Z,9.73
2023-02-03T11:36:34.222Z,9.66
2023-02-03T11:37:34.294Z,9.76
2023-02-03T11:38:34.315Z,9.75
2023-02-03T11:39:34.361Z,9.73
2023-02-03T11:40:34.467Z,9.71
2023-02-03T11:41:34.455Z,9.73
2023-02-03T11:42:34.503Z,9.70
2023-02-03T11:43:34.570Z,9.73
2023-02-03T11:44:34.629Z,9.78
2023-02-03T11:45:34.660Z,9.78
2023-02-03T11:46:34.761Z,9.81
2023-02-03T11:47:34.744Z,9.82
2023-02-03T11:48:34.781Z,9.78
2023-02-03T11:49:34.867Z,9.75
2023-02-03T11:50:34.907Z,9.79
2023-02-03T11:51:34.946Z,9.85
2023-02-03T11:52:34.960Z,9.79
2023-02-03T11:53:37.791Z,9.73
2023-02-03T11:54:35.058Z,9.78
2023-02-03T11:55:35.143Z,9.79
2023-02-03T11:56:35.156Z,9.75
2023-02-03T11:57:35.204Z,9.64
2023-02-03T11:58:35.260Z,9.61
2023-02-03T11:59:35.295Z,9.57
2023-02-03T12:00:35.365Z,9.46
2023-02-03T12:01:35.392Z,9.46
2023-02-03T12:02:35.511Z,9.48
2023-02-03T12:03:35.480Z,9.43
2023-02-03T12:04:35.563Z,9.45
2023-02-03T12:05:35.568Z,9.46
2023-02-03T12:06:35.631Z,9.48
2023-02-03T12:07:35.700Z,9.50
2023-02-03T12:08:35.712Z,9.46
2023-02-03T12:09:43.774Z,9.45
2023-02-03T12:10:35.822Z,9.46
2023-02-03T12:11:35.852Z,9.39
2023-02-03T12:12:36.748Z,9.34
2023-02-03T12:13:36.012Z,9.31
2023-02-03T12:14:35.990Z,9.45
2023-02-03T12:15:36.040Z,9.45
2023-02-03T12:16:36.144Z,9.48
2023-02-03T12:17:36.120Z,9.50
2023-02-03T12:18:36.184Z,9.50
2023-02-03T12:19:36.206Z,9.48
2023-02-03T12:20:36.270Z,9.52
2023-02-03T12:21:36.336Z,9.43
2023-02-03T12:22:36.353Z,9.43
2023-02-03T12:23:36.388Z,9.48
2023-02-03T12:24:36.441Z,9.52
2023-02-03T12:25:36.484Z,9.50
2023-02-03T12:26:36.595Z,9.45
2023-02-03T12:27:36.711Z,9.48
2023-02-03T12:28:36.713Z,9.52
2023-02-03T12:29:36.659Z,9.56
2023-02-03T12:30:36.737Z,9.49
2023-02-03T12:31:36.871Z,9.57
2023-02-03T12:32:36.808Z,9.60
2023-02-03T12:33:36.852Z,9.63
2023-02-03T12:34:36.912Z,9.58
2023-02-03T12:35:36.991Z,9.48
2023-02-03T12:36:36.994Z,9.48
2023-02-03T12:37:37.040Z,9.38
2023-02-03T12:38:37.117Z,9.46
2023-02-03T12:39:37.119Z,9.46
2023-02-03T12:40:37.188Z,9.46
2023-02-03T12:41:37.226Z,9.49
2023-02-03T12:42:37.269Z,9.32
2023-02-03T12:43:37.343Z,9.43
2023-02-03T12:44:37.354Z,9.42
2023-02-03T12:45:37.447Z,9.46
2023-02-03T12:46:37.448Z,9.48
2023-02-03T12:47:37.501Z,9.48
2023-02-03T12:48:37.567Z,9.48
2023-02-03T12:49:37.578Z,9.49
2023-02-03T12:50:37.635Z,9.50
2023-02-03T12:51:37.670Z,9.38
2023-02-03T12:52:37.722Z,9.31
2023-02-03T12:53:37.796Z,9.32
2023-02-03T12:54:37.814Z,9.42
2023-02-03T12:55:37.867Z,9.34
2023-02-03T12:56:37.911Z,9.30
2023-02-03T12:57:37.973Z,9.52
2023-02-03T12:58:37.999Z,9.48
2023-02-03T12:59:38.035Z,9.57
2023-02-03T13:00:38.141Z,9.52
2023-02-03T13:01:38.135Z,9.53
2023-02-03T13:02:38.172Z,9.46
2023-02-03T13:03:38.241Z,9.50
2023-02-03T13:04:38.297Z,9.43
2023-02-03T13:05:38.343Z,9.45
2023-02-03T13:06:38.381Z,9.45
2023-02-03T13:07:38.411Z,9.61
2023-02-03T13:08:38.454Z,9.56
2023-02-03T13:09:38.512Z,9.58
2023-02-03T13:10:38.560Z,9.53
2023-02-03T13:11:38.587Z,9.49
2023-02-03T13:12:38.632Z,9.52
2023-02-03T13:13:38.712Z,9.53
2023-02-03T13:14:38.728Z,9.50
2023-02-03T13:15:38.778Z,9.50